sensor_id;sensor_type;location;lat;lon;timestamp;temperature;humidity
22321;DHT22;11328;53.928;18.522;2022-07-03T00:00:18;17.80;99.90
22321;DHT22;11328;53.928;18.522;2022-07-03T00:02:45;17.80;99.90
22321;DHT22;11328;53.928;18.522;2022-07-03T00:05:13;17.80;99.90
22321;DHT22;11328;53.928;18.522;2022-07-03T00:07:40;17.80;99.90
22321;DHT22;11328;53.928;18.522;2022-07-03T00:10:08;17.80;99.90
22321;DHT22;11328;53.928;18.522;2022-07-03T00:12:35;17.70;99.90
22321;DHT22;11328;53.928;18.522;2022-07-03T00:15:03;17.70;99.90
22321;DHT22;11328;53.928;18.522;2022-07-03T00:17:34;17.70;99.90
22321;DHT22;11328;53.928;18.522;2022-07-03T00:20:01;17.70;99.90
22321;DHT22;11328;53.928;18.522;2022-07-03T00:22:30;17.60;99.90
22321;DHT22;11328;53.928;18.522;2022-07-03T00:25:05;17.60;99.90
22321;DHT22;11328;53.928;18.522;2022-07-03T00:27:34;17.70;99.90
22321;DHT22;11328;53.928;18.522;2022-07-03T00:30:03;17.70;99.90
22321;DHT22;11328;53.928;18.522;2022-07-03T00:32:38;17.60;99.90
22321;DHT22;11328;53.928;18.522;2022-07-03T00:35:08;17.60;99.90
22321;DHT22;11328;53.928;18.522;2022-07-03T00:38:01;17.60;99.90
22321;DHT22;11328;53.928;18.522;2022-07-03T00:40:29;17.60;99.90
22321;DHT22;11328;53.928;18.522;2022-07-03T00:42:59;17.60;99.90
22321;DHT22;11328;53.928;18.522;2022-07-03T00:45:27;17.60;99.90
22321;DHT22;11328;53.928;18.522;2022-07-03T00:47:58;17.50;99.90
22321;DHT22;11328;53.928;18.522;2022-07-03T00:50:27;17.40;99.90
22321;DHT22;11328;53.928;18.522;2022-07-03T00:53:02;17.40;99.90
22321;DHT22;11328;53.928;18.522;2022-07-03T00:55:29;17.20;99.90
22321;DHT22;11328;53.928;18.522;2022-07-03T00:57:57;17.20;99.90
22321;DHT22;11328;53.928;18.522;2022-07-03T01:00:25;17.10;99.90
22321;DHT22;11328;53.928;18.522;2022-07-03T01:03:02;16.90;99.90
22321;DHT22;11328;53.928;18.522;2022-07-03T01:05:43;16.90;99.90
22321;DHT22;11328;53.928;18.522;2022-07-03T01:08:34;16.90;99.90
22321;DHT22;11328;53.928;18.522;2022-07-03T01:17:00;17.00;99.90
22321;DHT22;11328;53.928;18.522;2022-07-03T01:19:42;17.00;99.90
22321;DHT22;11328;53.928;18.522;2022-07-03T01:22:28;17.00;99.90
22321;DHT22;11328;53.928;18.522;2022-07-03T01:28:22;17.10;99.90
22321;DHT22;11328;53.928;18.522;2022-07-03T01:30:53;17.10;99.90
22321;DHT22;11328;53.928;18.522;2022-07-03T01:33:26;17.10;99.90
22321;DHT22;11328;53.928;18.522;2022-07-03T01:36:09;17.00;99.90
22321;DHT22;11328;53.928;18.522;2022-07-03T01:38:42;16.90;99.90
22321;DHT22;11328;53.928;18.522;2022-07-03T01:41:11;16.80;99.90
22321;DHT22;11328;53.928;18.522;2022-07-03T01:43:44;16.70;99.90
22321;DHT22;11328;53.928;18.522;2022-07-03T01:46:17;16.60;99.90
22321;DHT22;11328;53.928;18.522;2022-07-03T01:48:45;16.50;99.90
22321;DHT22;11328;53.928;18.522;2022-07-03T01:51:15;16.30;99.90
22321;DHT22;11328;53.928;18.522;2022-07-03T01:53:48;16.20;99.90
22321;DHT22;11328;53.928;18.522;2022-07-03T01:56:18;16.20;99.90
22321;DHT22;11328;53.928;18.522;2022-07-03T01:58:47;16.10;99.90
22321;DHT22;11328;53.928;18.522;2022-07-03T02:07:02;16.00;99.90
22321;DHT22;11328;53.928;18.522;2022-07-03T02:09:49;15.90;99.90
22321;DHT22;11328;53.928;18.522;2022-07-03T02:12:44;15.70;99.90
22321;DHT22;11328;53.928;18.522;2022-07-03T02:15:33;15.70;99.90
22321;DHT22;11328;53.928;18.522;2022-07-03T02:18:11;15.60;99.90
22321;DHT22;11328;53.928;18.522;2022-07-03T02:20:45;15.50;99.90
22321;DHT22;11328;53.928;18.522;2022-07-03T02:23:20;15.40;99.90
22321;DHT22;11328;53.928;18.522;2022-07-03T02:26:00;15.30;99.90
22321;DHT22;11328;53.928;18.522;2022-07-03T02:29:04;15.20;99.90
22321;DHT22;11328;53.928;18.522;2022-07-03T02:31:43;15.30;99.90
22321;DHT22;11328;53.928;18.522;2022-07-03T02:34:17;15.20;99.90
22321;DHT22;11328;53.928;18.522;2022-07-03T02:36:50;15.20;99.90
22321;DHT22;11328;53.928;18.522;2022-07-03T02:39:38;15.20;99.90
22321;DHT22;11328;53.928;18.522;2022-07-03T02:45:45;15.20;99.90
22321;DHT22;11328;53.928;18.522;2022-07-03T02:48:43;15.20;99.90
22321;DHT22;11328;53.928;18.522;2022-07-03T02:51:22;15.20;99.90
22321;DHT22;11328;53.928;18.522;2022-07-03T02:53:59;15.30;99.90
22321;DHT22;11328;53.928;18.522;2022-07-03T02:57:06;15.30;99.90
22321;DHT22;11328;53.928;18.522;2022-07-03T03:05:24;15.00;99.90
22321;DHT22;11328;53.928;18.522;2022-07-03T03:08:21;14.90;99.90
22321;DHT22;11328;53.928;18.522;2022-07-03T03:10:52;15.00;99.90
22321;DHT22;11328;53.928;18.522;2022-07-03T03:13:26;15.20;99.90
22321;DHT22;11328;53.928;18.522;2022-07-03T03:16:07;15.30;99.90
22321;DHT22;11328;53.928;18.522;2022-07-03T03:18:38;15.20;99.90
22321;DHT22;11328;53.928;18.522;2022-07-03T03:21:17;15.30;99.90
22321;DHT22;11328;53.928;18.522;2022-07-03T03:23:51;15.40;99.90
22321;DHT22;11328;53.928;18.522;2022-07-03T03:26:24;15.50;99.90
22321;DHT22;11328;53.928;18.522;2022-07-03T03:28:55;15.40;99.90
22321;DHT22;11328;53.928;18.522;2022-07-03T03:31:22;15.50;99.90
22321;DHT22;11328;53.928;18.522;2022-07-03T03:33:50;15.60;99.90
22321;DHT22;11328;53.928;18.522;2022-07-03T03:36:19;15.60;99.90
22321;DHT22;11328;53.928;18.522;2022-07-03T03:38:48;15.60;99.90
22321;DHT22;11328;53.928;18.522;2022-07-03T03:41:16;15.70;99.90
22321;DHT22;11328;53.928;18.522;2022-07-03T03:43:44;15.80;99.90
22321;DHT22;11328;53.928;18.522;2022-07-03T03:46:12;16.00;99.90
22321;DHT22;11328;53.928;18.522;2022-07-03T03:48:41;16.00;99.90
22321;DHT22;11328;53.928;18.522;2022-07-03T03:51:09;16.20;99.90
22321;DHT22;11328;53.928;18.522;2022-07-03T03:53:37;16.20;99.90
22321;DHT22;11328;53.928;18.522;2022-07-03T03:56:06;16.30;99.90
22321;DHT22;11328;53.928;18.522;2022-07-03T03:58:37;16.40;99.90
22321;DHT22;11328;53.928;18.522;2022-07-03T04:01:06;16.50;99.90
22321;DHT22;11328;53.928;18.522;2022-07-03T04:03:36;16.50;99.90
22321;DHT22;11328;53.928;18.522;2022-07-03T04:06:04;16.60;99.90
22321;DHT22;11328;53.928;18.522;2022-07-03T04:08:32;16.70;99.90
22321;DHT22;11328;53.928;18.522;2022-07-03T04:11:00;16.80;99.90
22321;DHT22;11328;53.928;18.522;2022-07-03T04:13:28;16.80;99.90
22321;DHT22;11328;53.928;18.522;2022-07-03T04:15:55;16.80;99.90
22321;DHT22;11328;53.928;18.522;2022-07-03T04:18:23;16.90;99.90
22321;DHT22;11328;53.928;18.522;2022-07-03T04:20:55;17.00;99.90
22321;DHT22;11328;53.928;18.522;2022-07-03T04:23:22;17.10;99.90
22321;DHT22;11328;53.928;18.522;2022-07-03T04:25:49;17.10;99.90
22321;DHT22;11328;53.928;18.522;2022-07-03T04:28:17;17.30;99.90
22321;DHT22;11328;53.928;18.522;2022-07-03T04:30:47;17.40;99.90
22321;DHT22;11328;53.928;18.522;2022-07-03T04:33:15;17.40;99.90
22321;DHT22;11328;53.928;18.522;2022-07-03T04:35:42;17.40;99.90
22321;DHT22;11328;53.928;18.522;2022-07-03T04:38:10;17.60;99.90
22321;DHT22;11328;53.928;18.522;2022-07-03T04:40:37;17.60;99.90
22321;DHT22;11328;53.928;18.522;2022-07-03T04:43:04;17.70;99.90
22321;DHT22;11328;53.928;18.522;2022-07-03T04:45:31;17.90;99.90
22321;DHT22;11328;53.928;18.522;2022-07-03T04:47:58;18.00;99.90
22321;DHT22;11328;53.928;18.522;2022-07-03T04:50:26;18.00;99.90
22321;DHT22;11328;53.928;18.522;2022-07-03T04:52:53;18.00;99.90
22321;DHT22;11328;53.928;18.522;2022-07-03T04:55:20;18.20;99.90
22321;DHT22;11328;53.928;18.522;2022-07-03T04:57:47;18.30;99.90
22321;DHT22;11328;53.928;18.522;2022-07-03T05:00:14;18.40;99.90
22321;DHT22;11328;53.928;18.522;2022-07-03T05:02:41;18.50;99.90
22321;DHT22;11328;53.928;18.522;2022-07-03T05:05:09;18.50;99.90
22321;DHT22;11328;53.928;18.522;2022-07-03T05:07:36;18.60;99.90
22321;DHT22;11328;53.928;18.522;2022-07-03T05:10:04;18.70;99.90
22321;DHT22;11328;53.928;18.522;2022-07-03T05:12:32;18.80;99.90
22321;DHT22;11328;53.928;18.522;2022-07-03T05:15:06;19.00;99.90
22321;DHT22;11328;53.928;18.522;2022-07-03T05:17:34;19.10;99.90
22321;DHT22;11328;53.928;18.522;2022-07-03T05:20:03;19.20;99.90
22321;DHT22;11328;53.928;18.522;2022-07-03T05:23:01;19.40;99.90
22321;DHT22;11328;53.928;18.522;2022-07-03T05:25:31;19.60;99.90
22321;DHT22;11328;53.928;18.522;2022-07-03T05:28:00;19.80;99.90
22321;DHT22;11328;53.928;18.522;2022-07-03T05:30:28;20.00;99.90
22321;DHT22;11328;53.928;18.522;2022-07-03T05:32:56;20.20;99.90
22321;DHT22;11328;53.928;18.522;2022-07-03T05:35:25;20.30;99.90
22321;DHT22;11328;53.928;18.522;2022-07-03T05:37:52;20.50;99.90
22321;DHT22;11328;53.928;18.522;2022-07-03T05:40:20;20.60;99.90
22321;DHT22;11328;53.928;18.522;2022-07-03T05:42:47;20.80;99.90
22321;DHT22;11328;53.928;18.522;2022-07-03T05:45:14;21.10;99.90
22321;DHT22;11328;53.928;18.522;2022-07-03T05:47:42;21.30;99.90
22321;DHT22;11328;53.928;18.522;2022-07-03T05:50:10;21.50;99.90
22321;DHT22;11328;53.928;18.522;2022-07-03T05:52:37;21.60;99.90
22321;DHT22;11328;53.928;18.522;2022-07-03T05:55:06;21.70;99.90
22321;DHT22;11328;53.928;18.522;2022-07-03T05:57:33;22.00;99.90
22321;DHT22;11328;53.928;18.522;2022-07-03T06:00:02;22.10;99.90
22321;DHT22;11328;53.928;18.522;2022-07-03T06:02:30;22.30;99.90
22321;DHT22;11328;53.928;18.522;2022-07-03T06:04:59;22.50;99.90
22321;DHT22;11328;53.928;18.522;2022-07-03T06:07:26;22.70;99.90
22321;DHT22;11328;53.928;18.522;2022-07-03T06:09:54;22.80;99.90
22321;DHT22;11328;53.928;18.522;2022-07-03T06:12:21;22.90;99.90
22321;DHT22;11328;53.928;18.522;2022-07-03T06:14:48;23.10;99.90
22321;DHT22;11328;53.928;18.522;2022-07-03T06:17:16;23.30;99.90
22321;DHT22;11328;53.928;18.522;2022-07-03T06:19:43;23.40;99.90
22321;DHT22;11328;53.928;18.522;2022-07-03T06:22:10;23.50;99.90
22321;DHT22;11328;53.928;18.522;2022-07-03T06:24:38;23.50;99.90
22321;DHT22;11328;53.928;18.522;2022-07-03T06:27:05;23.70;99.90
22321;DHT22;11328;53.928;18.522;2022-07-03T06:29:32;23.90;99.90
22321;DHT22;11328;53.928;18.522;2022-07-03T06:31:59;24.00;99.90
22321;DHT22;11328;53.928;18.522;2022-07-03T06:34:29;24.00;99.90
22321;DHT22;11328;53.928;18.522;2022-07-03T06:36:56;24.10;99.90
22321;DHT22;11328;53.928;18.522;2022-07-03T06:39:23;24.10;99.90
22321;DHT22;11328;53.928;18.522;2022-07-03T06:41:50;24.10;99.90
22321;DHT22;11328;53.928;18.522;2022-07-03T06:44:17;24.20;99.90
22321;DHT22;11328;53.928;18.522;2022-07-03T06:46:45;24.40;99.90
22321;DHT22;11328;53.928;18.522;2022-07-03T06:49:12;24.50;99.90
22321;DHT22;11328;53.928;18.522;2022-07-03T06:51:39;24.60;99.90
22321;DHT22;11328;53.928;18.522;2022-07-03T06:54:07;24.70;99.90
22321;DHT22;11328;53.928;18.522;2022-07-03T06:56:34;24.80;99.90
22321;DHT22;11328;53.928;18.522;2022-07-03T06:59:01;25.00;99.90
22321;DHT22;11328;53.928;18.522;2022-07-03T07:01:29;25.20;99.90
22321;DHT22;11328;53.928;18.522;2022-07-03T07:03:57;25.20;99.90
22321;DHT22;11328;53.928;18.522;2022-07-03T07:06:24;25.40;99.90
22321;DHT22;11328;53.928;18.522;2022-07-03T07:08:51;25.50;99.90
22321;DHT22;11328;53.928;18.522;2022-07-03T07:11:18;25.60;99.90
22321;DHT22;11328;53.928;18.522;2022-07-03T07:13:46;25.80;99.90
22321;DHT22;11328;53.928;18.522;2022-07-03T07:16:13;25.90;99.90
22321;DHT22;11328;53.928;18.522;2022-07-03T07:18:41;26.10;99.90
22321;DHT22;11328;53.928;18.522;2022-07-03T07:21:09;26.30;99.90
22321;DHT22;11328;53.928;18.522;2022-07-03T07:23:37;26.50;99.90
22321;DHT22;11328;53.928;18.522;2022-07-03T07:26:04;26.70;99.90
22321;DHT22;11328;53.928;18.522;2022-07-03T07:28:31;26.80;99.90
22321;DHT22;11328;53.928;18.522;2022-07-03T07:31:00;27.10;99.90
22321;DHT22;11328;53.928;18.522;2022-07-03T07:33:28;27.20;99.90
22321;DHT22;11328;53.928;18.522;2022-07-03T07:35:56;27.40;99.90
22321;DHT22;11328;53.928;18.522;2022-07-03T07:38:24;27.50;99.90
22321;DHT22;11328;53.928;18.522;2022-07-03T07:40:51;27.60;99.90
22321;DHT22;11328;53.928;18.522;2022-07-03T07:43:18;27.60;99.90
22321;DHT22;11328;53.928;18.522;2022-07-03T07:45:45;27.80;99.90
22321;DHT22;11328;53.928;18.522;2022-07-03T07:48:12;27.90;99.10
22321;DHT22;11328;53.928;18.522;2022-07-03T07:50:40;28.00;98.30
22321;DHT22;11328;53.928;18.522;2022-07-03T07:53:07;28.10;96.00
22321;DHT22;11328;53.928;18.522;2022-07-03T07:55:34;28.10;94.30
22321;DHT22;11328;53.928;18.522;2022-07-03T07:58:02;27.80;95.60
22321;DHT22;11328;53.928;18.522;2022-07-03T08:00:29;28.00;95.40
22321;DHT22;11328;53.928;18.522;2022-07-03T08:02:56;28.20;97.50
22321;DHT22;11328;53.928;18.522;2022-07-03T08:05:42;28.30;96.20
22321;DHT22;11328;53.928;18.522;2022-07-03T08:08:13;28.30;95.00
22321;DHT22;11328;53.928;18.522;2022-07-03T08:10:47;28.40;94.10
22321;DHT22;11328;53.928;18.522;2022-07-03T08:13:18;28.50;94.30
22321;DHT22;11328;53.928;18.522;2022-07-03T08:15:46;28.60;93.40
22321;DHT22;11328;53.928;18.522;2022-07-03T08:18:14;28.80;93.30
22321;DHT22;11328;53.928;18.522;2022-07-03T08:20:41;28.90;94.20
22321;DHT22;11328;53.928;18.522;2022-07-03T08:23:08;29.00;94.90
22321;DHT22;11328;53.928;18.522;2022-07-03T08:25:36;29.00;94.30
22321;DHT22;11328;53.928;18.522;2022-07-03T08:28:03;29.00;94.50
22321;DHT22;11328;53.928;18.522;2022-07-03T08:30:31;29.30;94.40
22321;DHT22;11328;53.928;18.522;2022-07-03T08:32:58;29.20;93.40
22321;DHT22;11328;53.928;18.522;2022-07-03T08:35:26;29.20;92.90
22321;DHT22;11328;53.928;18.522;2022-07-03T08:37:54;29.20;91.50
22321;DHT22;11328;53.928;18.522;2022-07-03T08:40:23;29.10;91.40
22321;DHT22;11328;53.928;18.522;2022-07-03T08:42:56;29.30;92.80
22321;DHT22;11328;53.928;18.522;2022-07-03T08:45:25;29.40;91.90
22321;DHT22;11328;53.928;18.522;2022-07-03T08:47:58;29.30;90.70
22321;DHT22;11328;53.928;18.522;2022-07-03T08:50:26;29.20;90.50
22321;DHT22;11328;53.928;18.522;2022-07-03T08:52:53;29.30;90.90
22321;DHT22;11328;53.928;18.522;2022-07-03T08:55:20;29.40;90.70
22321;DHT22;11328;53.928;18.522;2022-07-03T08:57:48;29.50;88.80
22321;DHT22;11328;53.928;18.522;2022-07-03T09:00:18;29.50;89.30
22321;DHT22;11328;53.928;18.522;2022-07-03T09:02:48;29.60;88.90
22321;DHT22;11328;53.928;18.522;2022-07-03T09:05:17;29.60;89.10
22321;DHT22;11328;53.928;18.522;2022-07-03T09:07:45;29.70;90.70
22321;DHT22;11328;53.928;18.522;2022-07-03T09:10:16;29.70;87.90
22321;DHT22;11328;53.928;18.522;2022-07-03T09:12:47;29.70;90.10
22321;DHT22;11328;53.928;18.522;2022-07-03T09:15:16;29.80;89.30
22321;DHT22;11328;53.928;18.522;2022-07-03T09:18:07;29.90;87.00
22321;DHT22;11328;53.928;18.522;2022-07-03T09:20:40;29.90;85.90
22321;DHT22;11328;53.928;18.522;2022-07-03T09:25:57;29.70;88.40
22321;DHT22;11328;53.928;18.522;2022-07-03T09:28:43;29.80;87.10
22321;DHT22;11328;53.928;18.522;2022-07-03T09:31:23;30.00;85.80
22321;DHT22;11328;53.928;18.522;2022-07-03T09:34:00;29.90;85.40
22321;DHT22;11328;53.928;18.522;2022-07-03T09:36:41;30.00;87.30
22321;DHT22;11328;53.928;18.522;2022-07-03T09:39:23;30.00;85.70
22321;DHT22;11328;53.928;18.522;2022-07-03T09:42:01;30.00;85.40
22321;DHT22;11328;53.928;18.522;2022-07-03T09:44:31;29.80;84.00
22321;DHT22;11328;53.928;18.522;2022-07-03T09:47:09;29.90;83.70
22321;DHT22;11328;53.928;18.522;2022-07-03T09:55:17;29.30;83.00
22321;DHT22;11328;53.928;18.522;2022-07-03T09:57:58;29.70;85.20
22321;DHT22;11328;53.928;18.522;2022-07-03T10:00:32;29.90;83.80
22321;DHT22;11328;53.928;18.522;2022-07-03T10:05:42;29.00;82.90
22321;DHT22;11328;53.928;18.522;2022-07-03T10:08:15;28.60;82.40
22321;DHT22;11328;53.928;18.522;2022-07-03T10:10:45;28.30;81.70
22321;DHT22;11328;53.928;18.522;2022-07-03T10:13:14;28.20;82.10
22321;DHT22;11328;53.928;18.522;2022-07-03T10:15:43;28.30;83.50
22321;DHT22;11328;53.928;18.522;2022-07-03T10:18:12;28.60;83.00
22321;DHT22;11328;53.928;18.522;2022-07-03T10:20:45;28.80;81.50
22321;DHT22;11328;53.928;18.522;2022-07-03T10:23:13;28.60;78.60
22321;DHT22;11328;53.928;18.522;2022-07-03T10:25:43;28.40;80.70
22321;DHT22;11328;53.928;18.522;2022-07-03T10:28:12;28.40;79.70
22321;DHT22;11328;53.928;18.522;2022-07-03T10:30:43;28.20;79.30
22321;DHT22;11328;53.928;18.522;2022-07-03T10:33:11;28.50;79.30
22321;DHT22;11328;53.928;18.522;2022-07-03T10:35:49;28.70;80.20
22321;DHT22;11328;53.928;18.522;2022-07-03T10:38:39;28.70;78.60
22321;DHT22;11328;53.928;18.522;2022-07-03T10:41:40;28.60;79.30
22321;DHT22;11328;53.928;18.522;2022-07-03T10:44:28;28.70;82.20
22321;DHT22;11328;53.928;18.522;2022-07-03T10:47:49;28.80;81.30
22321;DHT22;11328;53.928;18.522;2022-07-03T10:50:21;29.00;80.80
22321;DHT22;11328;53.928;18.522;2022-07-03T10:52:50;29.00;80.20
22321;DHT22;11328;53.928;18.522;2022-07-03T10:55:18;29.00;79.80
22321;DHT22;11328;53.928;18.522;2022-07-03T10:58:08;29.00;81.90
22321;DHT22;11328;53.928;18.522;2022-07-03T11:00:52;29.00;82.20
22321;DHT22;11328;53.928;18.522;2022-07-03T11:04:00;28.90;79.70
22321;DHT22;11328;53.928;18.522;2022-07-03T11:09:12;29.10;79.90
22321;DHT22;11328;53.928;18.522;2022-07-03T11:11:45;29.30;78.70
22321;DHT22;11328;53.928;18.522;2022-07-03T11:14:29;29.50;81.80
22321;DHT22;11328;53.928;18.522;2022-07-03T11:17:19;29.80;80.90
22321;DHT22;11328;53.928;18.522;2022-07-03T11:19:49;29.90;81.60
22321;DHT22;11328;53.928;18.522;2022-07-03T11:22:59;30.00;79.30
22321;DHT22;11328;53.928;18.522;2022-07-03T11:25:47;30.00;80.50
22321;DHT22;11328;53.928;18.522;2022-07-03T11:34:06;30.30;78.30
22321;DHT22;11328;53.928;18.522;2022-07-03T11:36:50;30.50;78.50
22321;DHT22;11328;53.928;18.522;2022-07-03T11:39:19;30.20;78.70
22321;DHT22;11328;53.928;18.522;2022-07-03T11:41:50;30.30;79.60
22321;DHT22;11328;53.928;18.522;2022-07-03T11:44:19;30.00;77.90
22321;DHT22;11328;53.928;18.522;2022-07-03T11:46:49;30.00;78.20
22321;DHT22;11328;53.928;18.522;2022-07-03T11:49:18;30.20;79.20
22321;DHT22;11328;53.928;18.522;2022-07-03T11:52:02;30.40;81.00
22321;DHT22;11328;53.928;18.522;2022-07-03T11:57:17;30.50;79.70
22321;DHT22;11328;53.928;18.522;2022-07-03T11:59:44;30.30;78.80
22321;DHT22;11328;53.928;18.522;2022-07-03T12:02:11;30.30;79.20
22321;DHT22;11328;53.928;18.522;2022-07-03T12:04:38;30.20;80.40
22321;DHT22;11328;53.928;18.522;2022-07-03T12:07:06;29.70;76.80
22321;DHT22;11328;53.928;18.522;2022-07-03T12:09:35;29.10;77.20
22321;DHT22;11328;53.928;18.522;2022-07-03T12:12:10;29.30;78.80
22321;DHT22;11328;53.928;18.522;2022-07-03T12:17:23;29.60;80.80
22321;DHT22;11328;53.928;18.522;2022-07-03T12:22:31;29.60;80.20
22321;DHT22;11328;53.928;18.522;2022-07-03T12:25:01;29.30;80.50
22321;DHT22;11328;53.928;18.522;2022-07-03T12:27:33;29.20;78.20
22321;DHT22;11328;53.928;18.522;2022-07-03T12:30:02;29.30;80.20
22321;DHT22;11328;53.928;18.522;2022-07-03T12:32:31;29.60;80.60
22321;DHT22;11328;53.928;18.522;2022-07-03T12:35:01;29.80;79.20
22321;DHT22;11328;53.928;18.522;2022-07-03T12:37:40;29.70;78.90
22321;DHT22;11328;53.928;18.522;2022-07-03T12:40:12;29.70;77.50
22321;DHT22;11328;53.928;18.522;2022-07-03T12:45:16;29.80;79.90
22321;DHT22;11328;53.928;18.522;2022-07-03T12:47:45;29.80;78.60
22321;DHT22;11328;53.928;18.522;2022-07-03T12:50:25;29.80;75.60
22321;DHT22;11328;53.928;18.522;2022-07-03T12:53:00;30.00;76.20
22321;DHT22;11328;53.928;18.522;2022-07-03T12:55:29;30.10;75.50
22321;DHT22;11328;53.928;18.522;2022-07-03T12:58:14;30.00;79.30
22321;DHT22;11328;53.928;18.522;2022-07-03T13:01:24;29.30;78.30
22321;DHT22;11328;53.928;18.522;2022-07-03T13:04:00;29.50;75.90
22321;DHT22;11328;53.928;18.522;2022-07-03T13:06:28;29.50;77.10
22321;DHT22;11328;53.928;18.522;2022-07-03T13:08:57;29.50;78.80
22321;DHT22;11328;53.928;18.522;2022-07-03T13:14:17;29.70;79.10
22321;DHT22;11328;53.928;18.522;2022-07-03T13:16:50;29.90;75.20
22321;DHT22;11328;53.928;18.522;2022-07-03T13:19:21;29.90;74.80
22321;DHT22;11328;53.928;18.522;2022-07-03T13:21:52;29.40;75.00
22321;DHT22;11328;53.928;18.522;2022-07-03T13:24:21;29.30;73.80
22321;DHT22;11328;53.928;18.522;2022-07-03T13:26:50;29.30;76.00
22321;DHT22;11328;53.928;18.522;2022-07-03T13:29:21;29.20;76.40
22321;DHT22;11328;53.928;18.522;2022-07-03T13:31:51;29.20;76.40
22321;DHT22;11328;53.928;18.522;2022-07-03T13:34:19;29.30;80.00
22321;DHT22;11328;53.928;18.522;2022-07-03T13:36:47;29.40;76.50
22321;DHT22;11328;53.928;18.522;2022-07-03T13:39:16;29.50;77.50
22321;DHT22;11328;53.928;18.522;2022-07-03T13:41:44;29.20;78.10
22321;DHT22;11328;53.928;18.522;2022-07-03T13:44:12;28.70;78.90
22321;DHT22;11328;53.928;18.522;2022-07-03T13:46:39;28.80;78.70
22321;DHT22;11328;53.928;18.522;2022-07-03T13:49:06;28.60;77.60
22321;DHT22;11328;53.928;18.522;2022-07-03T13:51:34;28.70;77.90
22321;DHT22;11328;53.928;18.522;2022-07-03T13:54:01;28.70;80.90
22321;DHT22;11328;53.928;18.522;2022-07-03T13:56:28;28.50;80.20
22321;DHT22;11328;53.928;18.522;2022-07-03T13:58:55;28.20;80.70
22321;DHT22;11328;53.928;18.522;2022-07-03T14:01:23;28.20;80.00
22321;DHT22;11328;53.928;18.522;2022-07-03T14:03:50;28.10;80.10
22321;DHT22;11328;53.928;18.522;2022-07-03T14:06:18;28.10;79.50
22321;DHT22;11328;53.928;18.522;2022-07-03T14:08:45;28.10;77.80
22321;DHT22;11328;53.928;18.522;2022-07-03T14:11:12;28.10;80.90
22321;DHT22;11328;53.928;18.522;2022-07-03T14:13:41;27.90;80.20
22321;DHT22;11328;53.928;18.522;2022-07-03T14:16:09;27.70;80.60
22321;DHT22;11328;53.928;18.522;2022-07-03T14:18:39;27.70;81.70
22321;DHT22;11328;53.928;18.522;2022-07-03T14:21:06;27.80;82.10
22321;DHT22;11328;53.928;18.522;2022-07-03T14:23:34;27.80;78.40
22321;DHT22;11328;53.928;18.522;2022-07-03T14:26:01;28.00;79.70
22321;DHT22;11328;53.928;18.522;2022-07-03T14:28:30;28.10;80.90
22321;DHT22;11328;53.928;18.522;2022-07-03T14:31:17;28.00;79.80
22321;DHT22;11328;53.928;18.522;2022-07-03T14:34:03;27.90;80.00
22321;DHT22;11328;53.928;18.522;2022-07-03T14:36:30;28.00;80.60
22321;DHT22;11328;53.928;18.522;2022-07-03T14:39:10;27.80;79.40
22321;DHT22;11328;53.928;18.522;2022-07-03T14:41:41;27.80;81.30
22321;DHT22;11328;53.928;18.522;2022-07-03T14:44:09;27.80;81.60
22321;DHT22;11328;53.928;18.522;2022-07-03T14:46:36;27.80;80.50
22321;DHT22;11328;53.928;18.522;2022-07-03T14:49:03;27.80;82.60
22321;DHT22;11328;53.928;18.522;2022-07-03T14:51:30;27.50;83.30
22321;DHT22;11328;53.928;18.522;2022-07-03T14:53:58;27.20;81.90
22321;DHT22;11328;53.928;18.522;2022-07-03T14:56:26;27.00;81.30
22321;DHT22;11328;53.928;18.522;2022-07-03T14:58:57;27.10;81.40
22321;DHT22;11328;53.928;18.522;2022-07-03T15:01:34;27.30;83.10
22321;DHT22;11328;53.928;18.522;2022-07-03T15:04:51;27.40;83.70
22321;DHT22;11328;53.928;18.522;2022-07-03T15:07:27;27.40;83.80
22321;DHT22;11328;53.928;18.522;2022-07-03T15:10:08;27.30;82.90
22321;DHT22;11328;53.928;18.522;2022-07-03T15:12:42;27.10;83.60
22321;DHT22;11328;53.928;18.522;2022-07-03T15:15:13;27.10;85.40
22321;DHT22;11328;53.928;18.522;2022-07-03T15:17:43;27.00;83.30
22321;DHT22;11328;53.928;18.522;2022-07-03T15:20:13;26.90;83.50
22321;DHT22;11328;53.928;18.522;2022-07-03T15:22:45;27.00;86.60
22321;DHT22;11328;53.928;18.522;2022-07-03T15:25:18;27.10;83.80
22321;DHT22;11328;53.928;18.522;2022-07-03T15:27:51;27.20;83.40
22321;DHT22;11328;53.928;18.522;2022-07-03T15:30:20;27.30;82.10
22321;DHT22;11328;53.928;18.522;2022-07-03T15:32:49;27.20;84.30
22321;DHT22;11328;53.928;18.522;2022-07-03T15:35:18;27.30;83.70
22321;DHT22;11328;53.928;18.522;2022-07-03T15:49:29;27.20;86.50
22321;DHT22;11328;53.928;18.522;2022-07-03T15:52:16;27.30;84.80
22321;DHT22;11328;53.928;18.522;2022-07-03T15:54:52;27.40;87.10
22321;DHT22;11328;53.928;18.522;2022-07-03T16:00:20;27.40;86.40
22321;DHT22;11328;53.928;18.522;2022-07-03T16:02:59;27.40;85.40
22321;DHT22;11328;53.928;18.522;2022-07-03T16:05:47;27.50;85.30
22321;DHT22;11328;53.928;18.522;2022-07-03T16:08:17;27.50;87.30
22321;DHT22;11328;53.928;18.522;2022-07-03T16:10:44;27.40;86.70
22321;DHT22;11328;53.928;18.522;2022-07-03T16:13:12;27.30;87.40
22321;DHT22;11328;53.928;18.522;2022-07-03T16:15:41;27.10;88.00
22321;DHT22;11328;53.928;18.522;2022-07-03T16:18:11;27.00;87.30
22321;DHT22;11328;53.928;18.522;2022-07-03T16:20:39;27.00;88.90
22321;DHT22;11328;53.928;18.522;2022-07-03T16:23:09;26.80;90.40
22321;DHT22;11328;53.928;18.522;2022-07-03T16:25:39;26.70;90.70
22321;DHT22;11328;53.928;18.522;2022-07-03T16:28:08;26.70;88.70
22321;DHT22;11328;53.928;18.522;2022-07-03T16:30:45;26.70;89.90
22321;DHT22;11328;53.928;18.522;2022-07-03T16:33:17;26.90;89.70
22321;DHT22;11328;53.928;18.522;2022-07-03T16:35:59;26.70;89.00
22321;DHT22;11328;53.928;18.522;2022-07-03T16:38:35;26.50;89.60
22321;DHT22;11328;53.928;18.522;2022-07-03T16:41:07;26.20;89.50
22321;DHT22;11328;53.928;18.522;2022-07-03T16:43:39;26.00;89.60
22321;DHT22;11328;53.928;18.522;2022-07-03T16:46:09;25.90;90.60
22321;DHT22;11328;53.928;18.522;2022-07-03T16:48:48;25.80;90.30
22321;DHT22;11328;53.928;18.522;2022-07-03T16:51:17;25.80;90.80
22321;DHT22;11328;53.928;18.522;2022-07-03T16:53:45;25.80;91.20
22321;DHT22;11328;53.928;18.522;2022-07-03T16:56:13;25.70;91.40